sensor_id;sensor_type;location;lat;lon;timestamp;pressure;altitude;pressure_sealevel;temperature
12007;BMP180;6062;47.294;12.182;2022-07-21T00:00:20;81279.00;;;20.80
12007;BMP180;6062;47.294;12.182;2022-07-21T00:02:47;81269.00;;;20.80
12007;BMP180;6062;47.294;12.182;2022-07-21T00:05:15;81256.00;;;20.70
12007;BMP180;6062;47.294;12.182;2022-07-21T00:07:41;81274.00;;;20.70
12007;BMP180;6062;47.294;12.182;2022-07-21T00:10:08;81279.00;;;20.60
12007;BMP180;6062;47.294;12.182;2022-07-21T00:12:34;81279.00;;;20.60
12007;BMP180;6062;47.294;12.182;2022-07-21T00:15:01;81261.00;;;20.50
12007;BMP180;6062;47.294;12.182;2022-07-21T00:17:27;81268.00;;;20.50
12007;BMP180;6062;47.294;12.182;2022-07-21T00:19:53;81260.00;;;20.40
12007;BMP180;6062;47.294;12.182;2022-07-21T00:22:18;81259.00;;;20.30
12007;BMP180;6062;47.294;12.182;2022-07-21T00:24:44;81260.00;;;20.20
12007;BMP180;6062;47.294;12.182;2022-07-21T00:27:10;81262.00;;;20.20
12007;BMP180;6062;47.294;12.182;2022-07-21T00:29:35;81259.00;;;20.10
12007;BMP180;6062;47.294;12.182;2022-07-21T00:32:01;81257.00;;;20.10
12007;BMP180;6062;47.294;12.182;2022-07-21T00:34:29;81245.00;;;20.10
12007;BMP180;6062;47.294;12.182;2022-07-21T00:36:55;81253.00;;;20.10
12007;BMP180;6062;47.294;12.182;2022-07-21T00:39:20;81250.00;;;20.10
12007;BMP180;6062;47.294;12.182;2022-07-21T00:41:46;81262.00;;;20.10
12007;BMP180;6062;47.294;12.182;2022-07-21T00:44:27;81256.00;;;20.10
12007;BMP180;6062;47.294;12.182;2022-07-21T00:46:53;81249.00;;;20.00
12007;BMP180;6062;47.294;12.182;2022-07-21T00:49:20;81254.00;;;20.00
12007;BMP180;6062;47.294;12.182;2022-07-21T00:51:47;81262.00;;;20.00
12007;BMP180;6062;47.294;12.182;2022-07-21T00:54:15;81267.00;;;19.90
12007;BMP180;6062;47.294;12.182;2022-07-21T00:56:42;81267.00;;;19.90
12007;BMP180;6062;47.294;12.182;2022-07-21T00:59:10;81252.00;;;19.80
12007;BMP180;6062;47.294;12.182;2022-07-21T01:01:36;81250.00;;;19.70
12007;BMP180;6062;47.294;12.182;2022-07-21T01:04:02;81255.00;;;19.70
12007;BMP180;6062;47.294;12.182;2022-07-21T01:06:28;81255.00;;;19.60
12007;BMP180;6062;47.294;12.182;2022-07-21T01:08:54;81261.00;;;19.60
12007;BMP180;6062;47.294;12.182;2022-07-21T01:11:21;81251.00;;;19.50
12007;BMP180;6062;47.294;12.182;2022-07-21T01:13:49;81243.00;;;19.50
12007;BMP180;6062;47.294;12.182;2022-07-21T01:16:15;81236.00;;;19.40
12007;BMP180;6062;47.294;12.182;2022-07-21T01:18:41;81235.00;;;19.40
12007;BMP180;6062;47.294;12.182;2022-07-21T01:21:32;81240.00;;;19.40
12007;BMP180;6062;47.294;12.182;2022-07-21T01:24:00;81239.00;;;19.40
12007;BMP180;6062;47.294;12.182;2022-07-21T01:26:27;81224.00;;;19.40
12007;BMP180;6062;47.294;12.182;2022-07-21T01:28:53;81227.00;;;19.40
12007;BMP180;6062;47.294;12.182;2022-07-21T01:31:20;81230.00;;;19.50
12007;BMP180;6062;47.294;12.182;2022-07-21T01:33:46;81226.00;;;19.50
12007;BMP180;6062;47.294;12.182;2022-07-21T01:36:12;81231.00;;;19.50
12007;BMP180;6062;47.294;12.182;2022-07-21T01:38:37;81231.00;;;19.60
12007;BMP180;6062;47.294;12.182;2022-07-21T01:41:22;81226.00;;;19.60
12007;BMP180;6062;47.294;12.182;2022-07-21T01:44:02;81229.00;;;19.70
12007;BMP180;6062;47.294;12.182;2022-07-21T01:46:31;81224.00;;;19.70
12007;BMP180;6062;47.294;12.182;2022-07-21T01:48:57;81228.00;;;19.80
12007;BMP180;6062;47.294;12.182;2022-07-21T01:51:24;81225.00;;;19.80
12007;BMP180;6062;47.294;12.182;2022-07-21T01:53:50;81223.00;;;19.80
12007;BMP180;6062;47.294;12.182;2022-07-21T01:56:23;81226.00;;;19.80
12007;BMP180;6062;47.294;12.182;2022-07-21T01:58:51;81224.00;;;19.80
12007;BMP180;6062;47.294;12.182;2022-07-21T02:01:19;81219.00;;;19.80
12007;BMP180;6062;47.294;12.182;2022-07-21T02:03:46;81225.00;;;19.80
12007;BMP180;6062;47.294;12.182;2022-07-21T02:06:13;81224.00;;;19.80
12007;BMP180;6062;47.294;12.182;2022-07-21T02:08:39;81221.00;;;19.80
12007;BMP180;6062;47.294;12.182;2022-07-21T02:11:05;81220.00;;;19.80
12007;BMP180;6062;47.294;12.182;2022-07-21T02:13:32;81211.00;;;19.70
12007;BMP180;6062;47.294;12.182;2022-07-21T02:15:58;81214.00;;;19.70
12007;BMP180;6062;47.294;12.182;2022-07-21T02:18:23;81223.00;;;19.70
12007;BMP180;6062;47.294;12.182;2022-07-21T02:20:49;81215.00;;;19.70
12007;BMP180;6062;47.294;12.182;2022-07-21T02:23:17;81211.00;;;19.60
12007;BMP180;6062;47.294;12.182;2022-07-21T02:25:43;81212.00;;;19.60
12007;BMP180;6062;47.294;12.182;2022-07-21T02:28:10;81214.00;;;19.50
12007;BMP180;6062;47.294;12.182;2022-07-21T02:30:36;81209.00;;;19.40
12007;BMP180;6062;47.294;12.182;2022-07-21T02:33:02;81212.00;;;19.40
12007;BMP180;6062;47.294;12.182;2022-07-21T02:35:28;81202.00;;;19.30
12007;BMP180;6062;47.294;12.182;2022-07-21T02:37:54;81211.00;;;19.20
12007;BMP180;6062;47.294;12.182;2022-07-21T02:40:20;81207.00;;;19.20
12007;BMP180;6062;47.294;12.182;2022-07-21T02:42:46;81203.00;;;19.10
12007;BMP180;6062;47.294;12.182;2022-07-21T02:45:12;81203.00;;;19.00
12007;BMP180;6062;47.294;12.182;2022-07-21T02:48:03;81208.00;;;18.90
12007;BMP180;6062;47.294;12.182;2022-07-21T02:50:32;81205.00;;;18.90
12007;BMP180;6062;47.294;12.182;2022-07-21T02:53:02;81203.00;;;18.90
12007;BMP180;6062;47.294;12.182;2022-07-21T02:55:28;81207.00;;;18.80
12007;BMP180;6062;47.294;12.182;2022-07-21T02:58:12;81207.00;;;18.80
12007;BMP180;6062;47.294;12.182;2022-07-21T03:01:05;81199.00;;;18.70
12007;BMP180;6062;47.294;12.182;2022-07-21T03:03:34;81208.00;;;18.70
12007;BMP180;6062;47.294;12.182;2022-07-21T03:06:00;81215.00;;;18.70
12007;BMP180;6062;47.294;12.182;2022-07-21T03:08:28;81207.00;;;18.70
12007;BMP180;6062;47.294;12.182;2022-07-21T03:10:54;81209.00;;;18.70
12007;BMP180;6062;47.294;12.182;2022-07-21T03:13:21;81207.00;;;18.60
12007;BMP180;6062;47.294;12.182;2022-07-21T03:15:46;81212.00;;;18.70
12007;BMP180;6062;47.294;12.182;2022-07-21T03:18:12;81209.00;;;18.60
12007;BMP180;6062;47.294;12.182;2022-07-21T03:20:42;81209.00;;;18.60
12007;BMP180;6062;47.294;12.182;2022-07-21T03:23:09;81203.00;;;18.60
12007;BMP180;6062;47.294;12.182;2022-07-21T03:25:35;81210.00;;;18.60
12007;BMP180;6062;47.294;12.182;2022-07-21T03:28:02;81213.00;;;18.60
12007;BMP180;6062;47.294;12.182;2022-07-21T03:30:28;81214.00;;;18.60
12007;BMP180;6062;47.294;12.182;2022-07-21T03:32:55;81207.00;;;18.60
12007;BMP180;6062;47.294;12.182;2022-07-21T03:35:21;81212.00;;;18.60
12007;BMP180;6062;47.294;12.182;2022-07-21T03:38:07;81217.00;;;18.60
12007;BMP180;6062;47.294;12.182;2022-07-21T03:40:35;81218.00;;;18.60
12007;BMP180;6062;47.294;12.182;2022-07-21T03:43:05;81207.00;;;18.70
12007;BMP180;6062;47.294;12.182;2022-07-21T03:45:33;81216.00;;;18.70
12007;BMP180;6062;47.294;12.182;2022-07-21T03:48:02;81219.00;;;18.70
12007;BMP180;6062;47.294;12.182;2022-07-21T03:50:29;81216.00;;;18.70
12007;BMP180;6062;47.294;12.182;2022-07-21T03:52:55;81223.00;;;18.70
12007;BMP180;6062;47.294;12.182;2022-07-21T03:55:22;81218.00;;;18.80
12007;BMP180;6062;47.294;12.182;2022-07-21T03:57:52;81226.00;;;18.80
12007;BMP180;6062;47.294;12.182;2022-07-21T04:00:40;81226.00;;;18.80
12007;BMP180;6062;47.294;12.182;2022-07-21T04:03:07;81212.00;;;18.80
12007;BMP180;6062;47.294;12.182;2022-07-21T04:05:34;81226.00;;;18.80
12007;BMP180;6062;47.294;12.182;2022-07-21T04:08:00;81212.00;;;18.90
12007;BMP180;6062;47.294;12.182;2022-07-21T04:10:30;81218.00;;;18.90
12007;BMP180;6062;47.294;12.182;2022-07-21T04:12:58;81215.00;;;19.00
12007;BMP180;6062;47.294;12.182;2022-07-21T04:15:25;81212.00;;;19.00
12007;BMP180;6062;47.294;12.182;2022-07-21T04:17:51;81219.00;;;19.10
12007;BMP180;6062;47.294;12.182;2022-07-21T04:20:18;81217.00;;;19.10
12007;BMP180;6062;47.294;12.182;2022-07-21T04:22:46;81211.00;;;19.10
12007;BMP180;6062;47.294;12.182;2022-07-21T04:25:13;81216.00;;;19.20
12007;BMP180;6062;47.294;12.182;2022-07-21T04:27:40;81222.00;;;19.20
12007;BMP180;6062;47.294;12.182;2022-07-21T04:30:09;81218.00;;;19.30
12007;BMP180;6062;47.294;12.182;2022-07-21T04:32:36;81221.00;;;19.40
12007;BMP180;6062;47.294;12.182;2022-07-21T04:35:03;81221.00;;;19.40
12007;BMP180;6062;47.294;12.182;2022-07-21T04:37:29;81211.00;;;19.50
12007;BMP180;6062;47.294;12.182;2022-07-21T04:39:55;81209.00;;;19.60
12007;BMP180;6062;47.294;12.182;2022-07-21T04:42:20;81209.00;;;19.70
12007;BMP180;6062;47.294;12.182;2022-07-21T04:44:46;81226.00;;;19.70
12007;BMP180;6062;47.294;12.182;2022-07-21T04:47:12;81218.00;;;19.80
12007;BMP180;6062;47.294;12.182;2022-07-21T04:49:38;81220.00;;;19.80
12007;BMP180;6062;47.294;12.182;2022-07-21T04:52:04;81219.00;;;19.90
12007;BMP180;6062;47.294;12.182;2022-07-21T04:54:29;81221.00;;;19.90
12007;BMP180;6062;47.294;12.182;2022-07-21T04:56:55;81206.00;;;20.00
12007;BMP180;6062;47.294;12.182;2022-07-21T04:59:21;81208.00;;;20.10
12007;BMP180;6062;47.294;12.182;2022-07-21T05:01:46;81215.00;;;20.20
12007;BMP180;6062;47.294;12.182;2022-07-21T05:04:12;81215.00;;;20.30
12007;BMP180;6062;47.294;12.182;2022-07-21T05:06:38;81211.00;;;20.40
12007;BMP180;6062;47.294;12.182;2022-07-21T05:09:04;81206.00;;;20.50
12007;BMP180;6062;47.294;12.182;2022-07-21T05:11:29;81211.00;;;20.70
12007;BMP180;6062;47.294;12.182;2022-07-21T05:13:55;81207.00;;;20.80
12007;BMP180;6062;47.294;12.182;2022-07-21T05:16:22;81217.00;;;21.00
12007;BMP180;6062;47.294;12.182;2022-07-21T05:18:47;81219.00;;;21.10
12007;BMP180;6062;47.294;12.182;2022-07-21T05:21:13;81210.00;;;21.30
12007;BMP180;6062;47.294;12.182;2022-07-21T05:23:39;81216.00;;;21.50
12007;BMP180;6062;47.294;12.182;2022-07-21T05:26:04;81217.00;;;21.60
12007;BMP180;6062;47.294;12.182;2022-07-21T05:28:30;81218.00;;;21.70
12007;BMP180;6062;47.294;12.182;2022-07-21T05:30:56;81221.00;;;21.80
12007;BMP180;6062;47.294;12.182;2022-07-21T05:33:22;81216.00;;;21.90
12007;BMP180;6062;47.294;12.182;2022-07-21T05:35:48;81223.00;;;21.90
12007;BMP180;6062;47.294;12.182;2022-07-21T05:38:13;81219.00;;;22.00
12007;BMP180;6062;47.294;12.182;2022-07-21T05:40:39;81222.00;;;22.10
12007;BMP180;6062;47.294;12.182;2022-07-21T05:43:05;81226.00;;;22.10
12007;BMP180;6062;47.294;12.182;2022-07-21T05:45:31;81226.00;;;22.20
12007;BMP180;6062;47.294;12.182;2022-07-21T05:47:57;81222.00;;;22.20
12007;BMP180;6062;47.294;12.182;2022-07-21T05:50:23;81220.00;;;22.30
12007;BMP180;6062;47.294;12.182;2022-07-21T05:52:49;81220.00;;;22.30
12007;BMP180;6062;47.294;12.182;2022-07-21T05:55:15;81219.00;;;22.30
12007;BMP180;6062;47.294;12.182;2022-07-21T05:57:41;81218.00;;;22.30
12007;BMP180;6062;47.294;12.182;2022-07-21T06:00:08;81223.00;;;22.30
12007;BMP180;6062;47.294;12.182;2022-07-21T06:02:34;81219.00;;;22.40
12007;BMP180;6062;47.294;12.182;2022-07-21T06:05:00;81221.00;;;22.40
12007;BMP180;6062;47.294;12.182;2022-07-21T06:07:26;81231.00;;;22.50
12007;BMP180;6062;47.294;12.182;2022-07-21T06:09:52;81229.00;;;22.60
12007;BMP180;6062;47.294;12.182;2022-07-21T06:12:18;81232.00;;;22.80
12007;BMP180;6062;47.294;12.182;2022-07-21T06:14:44;81229.00;;;23.10
12007;BMP180;6062;47.294;12.182;2022-07-21T06:17:10;81227.00;;;23.20
12007;BMP180;6062;47.294;12.182;2022-07-21T06:19:35;81225.00;;;23.30
12007;BMP180;6062;47.294;12.182;2022-07-21T06:22:01;81228.00;;;23.20
12007;BMP180;6062;47.294;12.182;2022-07-21T06:24:30;81221.00;;;23.10
12007;BMP180;6062;47.294;12.182;2022-07-21T06:26:55;81227.00;;;22.90
12007;BMP180;6062;47.294;12.182;2022-07-21T06:29:23;81226.00;;;22.80
12007;BMP180;6062;47.294;12.182;2022-07-21T06:31:49;81230.00;;;22.60
12007;BMP180;6062;47.294;12.182;2022-07-21T06:34:16;81231.00;;;22.40
12007;BMP180;6062;47.294;12.182;2022-07-21T06:36:41;81229.00;;;22.30
12007;BMP180;6062;47.294;12.182;2022-07-21T06:39:08;81234.00;;;22.20
12007;BMP180;6062;47.294;12.182;2022-07-21T06:41:33;81234.00;;;22.10
12007;BMP180;6062;47.294;12.182;2022-07-21T06:43:59;81234.00;;;22.00
12007;BMP180;6062;47.294;12.182;2022-07-21T06:46:26;81232.00;;;21.80
12007;BMP180;6062;47.294;12.182;2022-07-21T06:48:52;81239.00;;;21.70
12007;BMP180;6062;47.294;12.182;2022-07-21T06:51:18;81230.00;;;21.60
12007;BMP180;6062;47.294;12.182;2022-07-21T06:53:44;81235.00;;;21.60
12007;BMP180;6062;47.294;12.182;2022-07-21T06:56:10;81241.00;;;21.60
12007;BMP180;6062;47.294;12.182;2022-07-21T06:58:38;81240.00;;;21.60
12007;BMP180;6062;47.294;12.182;2022-07-21T07:01:03;81245.00;;;21.60
12007;BMP180;6062;47.294;12.182;2022-07-21T07:03:29;81239.00;;;21.60
12007;BMP180;6062;47.294;12.182;2022-07-21T07:05:55;81240.00;;;21.50
12007;BMP180;6062;47.294;12.182;2022-07-21T07:08:22;81242.00;;;21.40
12007;BMP180;6062;47.294;12.182;2022-07-21T07:10:47;81246.00;;;21.40
12007;BMP180;6062;47.294;12.182;2022-07-21T07:13:13;81252.00;;;21.40
12007;BMP180;6062;47.294;12.182;2022-07-21T07:15:41;81247.00;;;21.40
12007;BMP180;6062;47.294;12.182;2022-07-21T07:18:06;81250.00;;;21.50
12007;BMP180;6062;47.294;12.182;2022-07-21T07:20:32;81249.00;;;21.60
12007;BMP180;6062;47.294;12.182;2022-07-21T07:22:58;81245.00;;;21.60
12007;BMP180;6062;47.294;12.182;2022-07-21T07:25:24;81245.00;;;21.50
12007;BMP180;6062;47.294;12.182;2022-07-21T07:27:50;81254.00;;;21.40
12007;BMP180;6062;47.294;12.182;2022-07-21T07:30:18;81254.00;;;21.30
12007;BMP180;6062;47.294;12.182;2022-07-21T07:32:44;81253.00;;;21.30
12007;BMP180;6062;47.294;12.182;2022-07-21T07:35:12;81255.00;;;21.20
12007;BMP180;6062;47.294;12.182;2022-07-21T07:37:41;81251.00;;;21.10
12007;BMP180;6062;47.294;12.182;2022-07-21T07:40:12;81252.00;;;21.10
12007;BMP180;6062;47.294;12.182;2022-07-21T07:42:39;81255.00;;;21.00
12007;BMP180;6062;47.294;12.182;2022-07-21T07:45:07;81246.00;;;21.00
12007;BMP180;6062;47.294;12.182;2022-07-21T07:47:34;81243.00;;;21.00
12007;BMP180;6062;47.294;12.182;2022-07-21T07:50:00;81242.00;;;20.90
12007;BMP180;6062;47.294;12.182;2022-07-21T07:52:27;81244.00;;;20.90
12007;BMP180;6062;47.294;12.182;2022-07-21T07:54:54;81245.00;;;21.00
12007;BMP180;6062;47.294;12.182;2022-07-21T07:57:20;81245.00;;;21.00
12007;BMP180;6062;47.294;12.182;2022-07-21T07:59:45;81256.00;;;21.10
12007;BMP180;6062;47.294;12.182;2022-07-21T08:02:11;81253.00;;;21.10
12007;BMP180;6062;47.294;12.182;2022-07-21T08:04:37;81246.00;;;21.10
12007;BMP180;6062;47.294;12.182;2022-07-21T08:07:03;81243.00;;;21.10
12007;BMP180;6062;47.294;12.182;2022-07-21T08:09:29;81242.00;;;21.10
12007;BMP180;6062;47.294;12.182;2022-07-21T08:11:55;81241.00;;;21.10
12007;BMP180;6062;47.294;12.182;2022-07-21T08:14:21;81256.00;;;21.10
12007;BMP180;6062;47.294;12.182;2022-07-21T08:16:48;81249.00;;;21.10
12007;BMP180;6062;47.294;12.182;2022-07-21T08:19:13;81249.00;;;21.10
12007;BMP180;6062;47.294;12.182;2022-07-21T08:21:39;81248.00;;;21.20
12007;BMP180;6062;47.294;12.182;2022-07-21T08:24:05;81246.00;;;21.40
12007;BMP180;6062;47.294;12.182;2022-07-21T08:26:31;81232.00;;;21.50
12007;BMP180;6062;47.294;12.182;2022-07-21T08:28:58;81250.00;;;21.70
12007;BMP180;6062;47.294;12.182;2022-07-21T08:31:24;81246.00;;;21.80
12007;BMP180;6062;47.294;12.182;2022-07-21T08:33:52;81249.00;;;21.90
12007;BMP180;6062;47.294;12.182;2022-07-21T08:36:18;81239.00;;;22.10
12007;BMP180;6062;47.294;12.182;2022-07-21T08:38:44;81246.00;;;22.20
12007;BMP180;6062;47.294;12.182;2022-07-21T08:41:10;81247.00;;;22.40
12007;BMP180;6062;47.294;12.182;2022-07-21T08:43:37;81239.00;;;22.60
12007;BMP180;6062;47.294;12.182;2022-07-21T08:46:04;81242.00;;;22.90
12007;BMP180;6062;47.294;12.182;2022-07-21T08:48:57;81245.00;;;23.40
12007;BMP180;6062;47.294;12.182;2022-07-21T08:51:23;81248.00;;;23.80
12007;BMP180;6062;47.294;12.182;2022-07-21T08:53:49;81248.00;;;24.20
12007;BMP180;6062;47.294;12.182;2022-07-21T08:56:15;81254.00;;;24.50
12007;BMP180;6062;47.294;12.182;2022-07-21T08:58:41;81254.00;;;24.80
12007;BMP180;6062;47.294;12.182;2022-07-21T09:01:07;81250.00;;;25.00
12007;BMP180;6062;47.294;12.182;2022-07-21T09:03:32;81245.00;;;25.20
12007;BMP180;6062;47.294;12.182;2022-07-21T09:06:13;81257.00;;;25.30
12007;BMP180;6062;47.294;12.182;2022-07-21T09:08:47;81255.00;;;25.40
12007;BMP180;6062;47.294;12.182;2022-07-21T09:11:20;81261.00;;;25.50
12007;BMP180;6062;47.294;12.182;2022-07-21T09:14:07;81254.00;;;25.60
12007;BMP180;6062;47.294;12.182;2022-07-21T09:16:38;81252.00;;;25.70
12007;BMP180;6062;47.294;12.182;2022-07-21T09:19:07;81263.00;;;25.70
12007;BMP180;6062;47.294;12.182;2022-07-21T09:21:40;81255.00;;;25.80
12007;BMP180;6062;47.294;12.182;2022-07-21T09:24:35;81264.00;;;25.50
12007;BMP180;6062;47.294;12.182;2022-07-21T09:29:57;81254.00;;;24.80
12007;BMP180;6062;47.294;12.182;2022-07-21T09:32:35;81255.00;;;24.60
12007;BMP180;6062;47.294;12.182;2022-07-21T09:35:11;81259.00;;;24.40
12007;BMP180;6062;47.294;12.182;2022-07-21T09:37:41;81258.00;;;24.10
12007;BMP180;6062;47.294;12.182;2022-07-21T09:40:12;81255.00;;;23.80
12007;BMP180;6062;47.294;12.182;2022-07-21T09:42:42;81257.00;;;23.30
12007;BMP180;6062;47.294;12.182;2022-07-21T09:45:12;81259.00;;;23.00
12007;BMP180;6062;47.294;12.182;2022-07-21T09:47:40;81258.00;;;22.70
12007;BMP180;6062;47.294;12.182;2022-07-21T09:50:10;81257.00;;;22.60
12007;BMP180;6062;47.294;12.182;2022-07-21T09:52:40;81257.00;;;22.30
12007;BMP180;6062;47.294;12.182;2022-07-21T09:55:11;81262.00;;;22.00
12007;BMP180;6062;47.294;12.182;2022-07-21T09:57:38;81260.00;;;21.70
12007;BMP180;6062;47.294;12.182;2022-07-21T10:00:07;81260.00;;;21.50
12007;BMP180;6062;47.294;12.182;2022-07-21T10:02:34;81260.00;;;21.40
12007;BMP180;6062;47.294;12.182;2022-07-21T10:05:17;81262.00;;;21.40
12007;BMP180;6062;47.294;12.182;2022-07-21T10:07:47;81260.00;;;21.50
12007;BMP180;6062;47.294;12.182;2022-07-21T10:10:15;81255.00;;;21.50
12007;BMP180;6062;47.294;12.182;2022-07-21T10:12:43;81246.00;;;21.60
12007;BMP180;6062;47.294;12.182;2022-07-21T10:15:10;81253.00;;;21.80
12007;BMP180;6062;47.294;12.182;2022-07-21T10:17:38;81262.00;;;21.80
12007;BMP180;6062;47.294;12.182;2022-07-21T10:20:18;81249.00;;;21.90
12007;BMP180;6062;47.294;12.182;2022-07-21T10:23:14;81261.00;;;21.90
12007;BMP180;6062;47.294;12.182;2022-07-21T10:25:42;81268.00;;;21.80
12007;BMP180;6062;47.294;12.182;2022-07-21T10:30:47;81263.00;;;21.60
12007;BMP180;6062;47.294;12.182;2022-07-21T10:33:16;81260.00;;;21.70
12007;BMP180;6062;47.294;12.182;2022-07-21T10:35:48;81268.00;;;21.70
12007;BMP180;6062;47.294;12.182;2022-07-21T10:38:33;81265.00;;;21.60
12007;BMP180;6062;47.294;12.182;2022-07-21T10:41:02;81253.00;;;21.60
12007;BMP180;6062;47.294;12.182;2022-07-21T10:45:56;81260.00;;;21.90
12007;BMP180;6062;47.294;12.182;2022-07-21T10:51:13;81251.00;;;22.10
12007;BMP180;6062;47.294;12.182;2022-07-21T10:53:40;81260.00;;;22.10
12007;BMP180;6062;47.294;12.182;2022-07-21T10:56:07;81256.00;;;22.00
12007;BMP180;6062;47.294;12.182;2022-07-21T10:58:40;81259.00;;;21.90
12007;BMP180;6062;47.294;12.182;2022-07-21T11:01:21;81260.00;;;21.80
12007;BMP180;6062;47.294;12.182;2022-07-21T11:04:12;81252.00;;;21.80
12007;BMP180;6062;47.294;12.182;2022-07-21T11:06:40;81250.00;;;21.90
12007;BMP180;6062;47.294;12.182;2022-07-21T11:11:37;81253.00;;;22.20
12007;BMP180;6062;47.294;12.182;2022-07-21T11:14:13;81243.00;;;22.30
12007;BMP180;6062;47.294;12.182;2022-07-21T11:19:37;81250.00;;;22.50
12007;BMP180;6062;47.294;12.182;2022-07-21T11:22:28;81248.00;;;22.60
12007;BMP180;6062;47.294;12.182;2022-07-21T11:25:05;81250.00;;;22.70
12007;BMP180;6062;47.294;12.182;2022-07-21T11:27:34;81245.00;;;22.80
12007;BMP180;6062;47.294;12.182;2022-07-21T11:30:06;81245.00;;;22.90
12007;BMP180;6062;47.294;12.182;2022-07-21T11:32:32;81246.00;;;23.00
12007;BMP180;6062;47.294;12.182;2022-07-21T11:35:07;81246.00;;;23.00
12007;BMP180;6062;47.294;12.182;2022-07-21T11:37:45;81246.00;;;22.90
12007;BMP180;6062;47.294;12.182;2022-07-21T11:40:17;81245.00;;;22.80
12007;BMP180;6062;47.294;12.182;2022-07-21T11:42:47;81247.00;;;22.80
12007;BMP180;6062;47.294;12.182;2022-07-21T11:45:14;81241.00;;;22.80
12007;BMP180;6062;47.294;12.182;2022-07-21T11:47:41;81251.00;;;22.80
12007;BMP180;6062;47.294;12.182;2022-07-21T11:50:10;81245.00;;;22.90
12007;BMP180;6062;47.294;12.182;2022-07-21T11:52:39;81250.00;;;22.90
12007;BMP180;6062;47.294;12.182;2022-07-21T11:55:09;81261.00;;;22.90
12007;BMP180;6062;47.294;12.182;2022-07-21T11:57:36;81254.00;;;22.80
12007;BMP180;6062;47.294;12.182;2022-07-21T12:00:03;81255.00;;;22.80
12007;BMP180;6062;47.294;12.182;2022-07-21T12:02:31;81245.00;;;22.70
12007;BMP180;6062;47.294;12.182;2022-07-21T12:05:02;81243.00;;;22.60
12007;BMP180;6062;47.294;12.182;2022-07-21T12:07:34;81249.00;;;22.60
12007;BMP180;6062;47.294;12.182;2022-07-21T12:10:05;81240.00;;;22.50
12007;BMP180;6062;47.294;12.182;2022-07-21T12:12:46;81243.00;;;22.30
12007;BMP180;6062;47.294;12.182;2022-07-21T12:15:15;81238.00;;;22.10
12007;BMP180;6062;47.294;12.182;2022-07-21T12:17:44;81243.00;;;22.00
12007;BMP180;6062;47.294;12.182;2022-07-21T12:20:11;81241.00;;;21.80
12007;BMP180;6062;47.294;12.182;2022-07-21T12:22:42;81234.00;;;21.70
12007;BMP180;6062;47.294;12.182;2022-07-21T12:25:12;81246.00;;;21.60
12007;BMP180;6062;47.294;12.182;2022-07-21T12:27:41;81227.00;;;21.60
12007;BMP180;6062;47.294;12.182;2022-07-21T12:30:11;81247.00;;;21.70
12007;BMP180;6062;47.294;12.182;2022-07-21T12:33:04;81241.00;;;21.80
12007;BMP180;6062;47.294;12.182;2022-07-21T12:35:30;81242.00;;;21.90
12007;BMP180;6062;47.294;12.182;2022-07-21T12:38:01;81245.00;;;22.00
12007;BMP180;6062;47.294;12.182;2022-07-21T12:40:29;81239.00;;;22.00
12007;BMP180;6062;47.294;12.182;2022-07-21T12:43:15;81231.00;;;22.10
12007;BMP180;6062;47.294;12.182;2022-07-21T12:48:37;81232.00;;;22.40
12007;BMP180;6062;47.294;12.182;2022-07-21T12:51:21;81230.00;;;22.50
12007;BMP180;6062;47.294;12.182;2022-07-21T12:53:54;81230.00;;;22.50
12007;BMP180;6062;47.294;12.182;2022-07-21T12:56:26;81226.00;;;22.50
12007;BMP180;6062;47.294;12.182;2022-07-21T12:58:54;81233.00;;;22.50
12007;BMP180;6062;47.294;12.182;2022-07-21T13:01:22;81243.00;;;22.40
12007;BMP180;6062;47.294;12.182;2022-07-21T13:03:48;81237.00;;;22.40
12007;BMP180;6062;47.294;12.182;2022-07-21T13:06:15;81241.00;;;22.20
12007;BMP180;6062;47.294;12.182;2022-07-21T13:08:44;81228.00;;;22.00
12007;BMP180;6062;47.294;12.182;2022-07-21T13:11:15;81230.00;;;21.90
12007;BMP180;6062;47.294;12.182;2022-07-21T13:13:43;81225.00;;;21.90
12007;BMP180;6062;47.294;12.182;2022-07-21T13:16:11;81237.00;;;21.90
12007;BMP180;6062;47.294;12.182;2022-07-21T13:18:36;81236.00;;;21.80
12007;BMP180;6062;47.294;12.182;2022-07-21T13:21:03;81225.00;;;21.70
12007;BMP180;6062;47.294;12.182;2022-07-21T13:23:29;81231.00;;;21.70
12007;BMP180;6062;47.294;12.182;2022-07-21T13:25:55;81236.00;;;21.60
12007;BMP180;6062;47.294;12.182;2022-07-21T13:28:21;81226.00;;;21.60
12007;BMP180;6062;47.294;12.182;2022-07-21T13:30:47;81227.00;;;21.50
12007;BMP180;6062;47.294;12.182;2022-07-21T13:33:14;81231.00;;;21.50
12007;BMP180;6062;47.294;12.182;2022-07-21T13:35:41;81219.00;;;21.50
12007;BMP180;6062;47.294;12.182;2022-07-21T13:38:07;81221.00;;;21.50
12007;BMP180;6062;47.294;12.182;2022-07-21T13:40:32;81233.00;;;21.50
12007;BMP180;6062;47.294;12.182;2022-07-21T13:42:58;81221.00;;;21.50
12007;BMP180;6062;47.294;12.182;2022-07-21T13:45:24;81228.00;;;21.50
12007;BMP180;6062;47.294;12.182;2022-07-21T13:47:49;81225.00;;;21.40
12007;BMP180;6062;47.294;12.182;2022-07-21T13:50:15;81217.00;;;21.30
12007;BMP180;6062;47.294;12.182;2022-07-21T13:52:41;81221.00;;;21.20
12007;BMP180;6062;47.294;12.182;2022-07-21T13:55:08;81217.00;;;21.10
12007;BMP180;6062;47.294;12.182;2022-07-21T13:57:35;81218.00;;;21.00
12007;BMP180;6062;47.294;12.182;2022-07-21T14:00:06;81228.00;;;21.00
12007;BMP180;6062;47.294;12.182;2022-07-21T14:02:34;81230.00;;;20.90
12007;BMP180;6062;47.294;12.182;2022-07-21T14:05:00;81226.00;;;20.80
12007;BMP180;6062;47.294;12.182;2022-07-21T14:07:26;81228.00;;;20.70
12007;BMP180;6062;47.294;12.182;2022-07-21T14:09:52;81228.00;;;20.60
12007;BMP180;6062;47.294;12.182;2022-07-21T14:12:18;81237.00;;;20.50
12007;BMP180;6062;47.294;12.182;2022-07-21T14:14:45;81231.00;;;20.40
12007;BMP180;6062;47.294;12.182;2022-07-21T14:17:15;81228.00;;;20.40
12007;BMP180;6062;47.294;12.182;2022-07-21T14:19:43;81226.00;;;20.30
12007;BMP180;6062;47.294;12.182;2022-07-21T14:22:10;81232.00;;;20.30
12007;BMP180;6062;47.294;12.182;2022-07-21T14:24:36;81233.00;;;20.30
12007;BMP180;6062;47.294;12.182;2022-07-21T14:27:20;81228.00;;;20.20
12007;BMP180;6062;47.294;12.182;2022-07-21T14:29:46;81226.00;;;20.20
12007;BMP180;6062;47.294;12.182;2022-07-21T14:32:12;81221.00;;;20.10
12007;BMP180;6062;47.294;12.182;2022-07-21T14:34:38;81228.00;;;20.10